createdAt,value
2022-10-22T00:00:56.761Z,95.22
2022-10-22T00:03:24.527Z,95.21
2022-10-22T00:05:52.222Z,95.07
2022-10-22T00:08:20.121Z,94.98
2022-10-22T00:10:47.988Z,95.05
2022-10-22T00:13:17.492Z,95.71
2022-10-22T00:15:45.222Z,95.94
2022-10-22T00:18:12.926Z,96.22
2022-10-22T00:20:40.720Z,96.23
2022-10-22T00:23:08.453Z,96.27
2022-10-22T00:25:37.102Z,96.51
2022-10-22T00:28:05.116Z,96.64
2022-10-22T00:30:34.193Z,96.21
2022-10-22T00:33:01.901Z,96.65
2022-10-22T00:35:29.662Z,96.73
2022-10-22T00:37:57.395Z,96.86
2022-10-22T00:40:25.111Z,96.95
2022-10-22T00:42:52.922Z,96.96
2022-10-22T00:45:23.881Z,96.79
2022-10-22T00:48:00.546Z,96.51
2022-10-22T00:50:32.380Z,96.64
2022-10-22T00:53:02.310Z,96.73
2022-10-22T00:55:31.322Z,96.66
2022-10-22T00:57:59.498Z,96.67
2022-10-22T01:00:27.635Z,96.27
2022-10-22T01:02:58.853Z,96.86
2022-10-22T01:05:30.376Z,96.82
2022-10-22T01:07:58.274Z,96.60
2022-10-22T01:10:44.170Z,96.48
2022-10-22T01:13:23.526Z,96.47
2022-10-22T01:16:00.354Z,97.14
2022-10-22T01:18:37.962Z,97.08
2022-10-22T01:21:15.175Z,97.30
2022-10-22T01:24:09.578Z,97.55
2022-10-22T01:26:51.449Z,97.49
2022-10-22T01:29:26.753Z,97.83
2022-10-22T01:31:57.932Z,97.52
2022-10-22T01:34:28.224Z,97.88
2022-10-22T01:36:57.649Z,97.83
2022-10-22T01:39:28.224Z,97.98
2022-10-22T01:41:56.579Z,98.04
2022-10-22T01:44:30.734Z,98.13
2022-10-22T01:47:08.373Z,97.93
2022-10-22T01:49:52.042Z,97.96
2022-10-22T01:52:30.150Z,97.89
2022-10-22T01:55:08.808Z,98.02
2022-10-22T01:57:44.909Z,98.00
2022-10-22T02:00:18.187Z,98.28
2022-10-22T02:02:53.919Z,98.14
2022-10-22T02:05:26.233Z,98.50
2022-10-22T02:07:56.462Z,98.60
2022-10-22T02:10:25.661Z,98.69
2022-10-22T02:12:55.719Z,98.56
2022-10-22T02:15:28.370Z,98.62
2022-10-22T02:17:58.742Z,98.54
2022-10-22T02:20:29.289Z,98.65
2022-10-22T02:22:57.824Z,98.55
2022-10-22T02:25:29.349Z,98.73
2022-10-22T02:28:05.174Z,98.51
2022-10-22T02:30:36.788Z,98.51
2022-10-22T02:33:09.769Z,98.53
2022-10-22T02:35:39.838Z,98.63
2022-10-22T02:38:08.739Z,98.89
2022-10-22T02:40:36.595Z,99.02
2022-10-22T02:43:06.311Z,98.89
2022-10-22T02:45:35.864Z,98.80
2022-10-22T02:48:03.912Z,98.82
2022-10-22T02:50:31.718Z,98.49
2022-10-22T02:52:59.413Z,98.46
2022-10-22T02:55:27.175Z,98.42
2022-10-22T02:57:54.916Z,98.49
2022-10-22T03:00:23.127Z,98.89
2022-10-22T03:02:52.215Z,98.71
2022-10-22T03:05:19.968Z,98.71
2022-10-22T03:07:47.723Z,98.79
2022-10-22T03:10:15.610Z,98.93
2022-10-22T03:12:43.300Z,99.06
2022-10-22T03:15:11.609Z,99.20
2022-10-22T03:17:39.490Z,99.18
2022-10-22T03:20:09.870Z,99.28
2022-10-22T03:22:40.507Z,99.67
2022-10-22T03:25:12.219Z,100.00
2022-10-22T03:27:42.276Z,100.00
2022-10-22T03:30:11.611Z,100.00
2022-10-22T03:32:39.336Z,100.00
2022-10-22T03:35:09.166Z,100.00
2022-10-22T03:37:38.232Z,100.00
2022-10-22T03:40:08.537Z,100.00
2022-10-22T03:42:36.554Z,100.00
2022-10-22T03:45:05.117Z,100.00
2022-10-22T03:47:32.886Z,100.00
2022-10-22T03:50:00.598Z,100.00
2022-10-22T03:52:29.727Z,100.00
2022-10-22T03:54:57.698Z,100.00
2022-10-22T03:57:25.470Z,99.76
2022-10-22T03:59:53.181Z,99.92
2022-10-22T04:02:21.630Z,99.81
2022-10-22T04:04:49.370Z,99.98
2022-10-22T04:07:17.088Z,99.93
2022-10-22T04:09:46.182Z,99.76
2022-10-22T04:12:13.893Z,99.94
2022-10-22T04:14:41.631Z,99.61
2022-10-22T04:17:09.401Z,100.00
2022-10-22T04:19:37.185Z,99.99
2022-10-22T04:22:04.892Z,99.89
2022-10-22T04:24:33.420Z,99.73
2022-10-22T04:27:02.467Z,99.73
2022-10-22T04:29:30.181Z,99.85
2022-10-22T04:31:57.893Z,99.82
2022-10-22T04:34:28.584Z,100.00
2022-10-22T04:36:56.590Z,100.00
2022-10-22T04:39:24.368Z,100.00
2022-10-22T04:41:52.098Z,100.00
2022-10-22T04:44:21.131Z,100.00
2022-10-22T04:46:48.998Z,100.00
2022-10-22T04:49:16.761Z,100.00
2022-10-22T04:51:44.488Z,100.00
2022-10-22T04:54:12.242Z,99.94
2022-10-22T04:56:40.913Z,100.00
2022-10-22T04:59:10.155Z,100.00
2022-10-22T05:01:42.843Z,100.00
2022-10-22T05:04:13.473Z,100.00
2022-10-22T05:06:41.235Z,100.00
2022-10-22T05:09:13.823Z,100.00
2022-10-22T05:11:45.503Z,100.00
2022-10-22T05:14:14.020Z,100.00
2022-10-22T05:16:43.150Z,100.00
2022-10-22T05:19:17.860Z,100.00
2022-10-22T05:21:45.767Z,100.00
2022-10-22T05:24:14.144Z,100.00
2022-10-22T05:26:42.122Z,100.00
2022-10-22T05:29:09.857Z,100.00
2022-10-22T05:31:38.831Z,100.00
2022-10-22T05:34:07.954Z,100.00
2022-10-22T05:36:35.658Z,100.00
2022-10-22T05:39:03.670Z,100.00
2022-10-22T05:41:31.869Z,100.00
2022-10-22T05:44:00.926Z,100.00
2022-10-22T05:46:30.816Z,100.00
2022-10-22T05:49:00.107Z,100.00
2022-10-22T05:51:31.898Z,100.00
2022-10-22T05:54:01.431Z,100.00
2022-10-22T05:56:31.824Z,100.00
2022-10-22T05:59:00.314Z,100.00
2022-10-22T06:01:30.469Z,100.00
2022-10-22T06:03:59.572Z,100.00
2022-10-22T06:06:32.948Z,100.00
2022-10-22T06:09:03.368Z,100.00
2022-10-22T06:11:34.266Z,100.00
2022-10-22T06:14:03.571Z,100.00
2022-10-22T06:16:31.954Z,100.00
2022-10-22T06:19:01.785Z,100.00
2022-10-22T06:21:32.134Z,100.00
2022-10-22T06:24:01.405Z,100.00
2022-10-22T06:26:29.814Z,100.00
2022-10-22T06:28:58.125Z,100.00
2022-10-22T06:31:27.411Z,100.00
2022-10-22T06:33:55.445Z,100.00
2022-10-22T06:36:25.041Z,100.00
2022-10-22T06:38:55.696Z,100.00
2022-10-22T06:41:27.148Z,100.00
2022-10-22T06:43:58.219Z,100.00
2022-10-22T06:46:26.759Z,100.00
2022-10-22T06:48:56.433Z,100.00
2022-10-22T06:51:24.571Z,100.00
2022-10-22T06:53:52.293Z,100.00
2022-10-22T06:56:23.023Z,100.00
2022-10-22T06:58:51.187Z,100.00
2022-10-22T07:01:21.370Z,100.00
2022-10-22T07:03:51.509Z,100.00
2022-10-22T07:06:20.467Z,100.00
2022-10-22T07:08:48.374Z,100.00
2022-10-22T07:11:18.247Z,100.00
2022-10-22T07:13:47.641Z,100.00
2022-10-22T07:16:16.410Z,100.00
2022-10-22T07:18:45.077Z,100.00
2022-10-22T07:21:14.437Z,100.00
2022-10-22T07:23:42.523Z,100.00
2022-10-22T07:26:12.786Z,100.00
2022-10-22T07:28:41.201Z,100.00
2022-10-22T07:31:12.689Z,100.00
2022-10-22T07:33:41.162Z,99.84
2022-10-22T07:36:12.020Z,99.92
2022-10-22T07:38:39.777Z,99.50
2022-10-22T07:41:07.565Z,99.04
2022-10-22T07:43:35.487Z,99.04
2022-10-22T07:46:03.366Z,98.44
2022-10-22T07:48:32.465Z,97.44
2022-10-22T07:51:00.243Z,93.49
2022-10-22T07:53:28.064Z,89.69
2022-10-22T07:55:56.738Z,88.38
2022-10-22T07:58:25.244Z,88.67
2022-10-22T08:00:56.522Z,89.09
2022-10-22T08:03:24.481Z,89.32
2022-10-22T08:05:54.817Z,89.79
2022-10-22T08:08:25.868Z,90.61
2022-10-22T08:10:58.577Z,90.26
2022-10-22T08:13:27.425Z,89.96
2022-10-22T08:15:57.499Z,90.35
2022-10-22T08:18:25.661Z,90.24
2022-10-22T08:20:55.019Z,88.92
2022-10-22T08:23:26.025Z,88.79
2022-10-22T08:25:56.880Z,88.57
2022-10-22T08:28:24.780Z,89.31
2022-10-22T08:30:52.765Z,89.52
2022-10-22T08:33:20.784Z,89.36
2022-10-22T08:35:50.322Z,89.55
2022-10-22T08:38:20.284Z,89.88
2022-10-22T08:40:51.158Z,90.43
2022-10-22T08:43:59.234Z,90.54
2022-10-22T08:46:40.073Z,90.11
2022-10-22T08:49:18.408Z,88.74
2022-10-22T08:51:46.387Z,87.66
2022-10-22T08:54:27.520Z,87.98
2022-10-22T08:57:17.325Z,87.45
2022-10-22T08:59:48.823Z,86.81
2022-10-22T09:02:29.118Z,87.03
2022-10-22T09:05:10.036Z,87.50
2022-10-22T09:07:42.922Z,87.04
2022-10-22T09:10:12.881Z,87.42
2022-10-22T09:12:40.786Z,87.55
2022-10-22T09:15:14.294Z,87.01
2022-10-22T09:17:54.168Z,86.60
2022-10-22T09:20:29.745Z,86.66
2022-10-22T09:23:06.221Z,86.23
2022-10-22T09:25:37.887Z,85.81
2022-10-22T09:28:05.955Z,85.92
2022-10-22T09:30:37.875Z,84.73
2022-10-22T09:33:14.814Z,82.77
2022-10-22T09:35:47.078Z,82.76
2022-10-22T09:38:17.722Z,80.35
2022-10-22T09:40:49.788Z,78.85
2022-10-22T09:43:18.134Z,79.20
2022-10-22T09:45:47.276Z,78.96
2022-10-22T09:48:26.401Z,78.64
2022-10-22T09:51:00.232Z,79.20
2022-10-22T09:53:31.585Z,78.39
2022-10-22T09:56:02.628Z,77.68
2022-10-22T09:58:30.191Z,78.16
2022-10-22T10:01:00.309Z,77.56
2022-10-22T10:03:29.781Z,76.77
2022-10-22T10:06:03.273Z,76.84
2022-10-22T10:08:34.411Z,77.91
2022-10-22T10:11:11.869Z,78.08
2022-10-22T10:13:48.459Z,77.67
2022-10-22T10:16:32.906Z,78.33
2022-10-22T10:19:14.773Z,75.88
2022-10-22T10:21:50.449Z,75.42
2022-10-22T10:24:23.498Z,74.52
2022-10-22T10:26:59.516Z,72.59
2022-10-22T10:32:28.834Z,73.56
2022-10-22T10:35:04.723Z,71.74
2022-10-22T10:37:41.709Z,71.93
2022-10-22T10:40:24.020Z,71.15
2022-10-22T10:43:01.135Z,71.51
2022-10-22T10:45:38.082Z,69.74
2022-10-22T10:48:13.715Z,70.78
2022-10-22T10:50:52.193Z,68.74
2022-10-22T10:53:35.621Z,69.07
2022-10-22T10:56:15.732Z,67.88
2022-10-22T10:58:53.606Z,67.88
2022-10-22T11:01:28.642Z,68.98
2022-10-22T11:04:18.766Z,68.47
2022-10-22T11:06:47.628Z,68.47
2022-10-22T11:09:26.785Z,69.36
2022-10-22T11:11:59.250Z,70.18
2022-10-22T11:14:33.628Z,70.33
2022-10-22T11:17:07.149Z,69.87
2022-10-22T11:19:50.654Z,68.74
2022-10-22T11:22:27.029Z,69.25
2022-10-22T11:25:01.124Z,68.10
2022-10-22T11:27:37.103Z,68.17
2022-10-22T11:30:12.903Z,66.72
2022-10-22T11:32:42.879Z,66.37
2022-10-22T11:35:17.092Z,66.28
2022-10-22T11:37:47.827Z,66.96
2022-10-22T11:40:19.770Z,65.79
2022-10-22T11:42:51.057Z,65.34
2022-10-22T11:45:31.641Z,65.85
2022-10-22T11:48:05.895Z,65.04
2022-10-22T11:50:48.075Z,64.63
2022-10-22T11:53:21.185Z,63.22
2022-10-22T11:55:51.519Z,63.68
2022-10-22T11:58:43.741Z,64.76
2022-10-22T12:01:28.346Z,64.56
2022-10-22T12:04:18.852Z,63.87
2022-10-22T12:07:01.343Z,64.01
2022-10-22T12:09:32.764Z,61.68
2022-10-22T12:12:13.241Z,61.80
2022-10-22T12:14:53.592Z,63.02
2022-10-22T12:17:23.609Z,62.27
2022-10-22T12:20:02.071Z,61.59
2022-10-22T12:22:32.671Z,62.11
2022-10-22T12:25:03.127Z,61.73
2022-10-22T12:27:36.196Z,62.87
2022-10-22T12:30:18.877Z,62.79
2022-10-22T12:32:47.940Z,62.24
2022-10-22T12:35:18.855Z,62.10
2022-10-22T12:37:46.656Z,62.33
2022-10-22T12:40:20.761Z,60.75
2022-10-22T12:42:50.982Z,60.00
2022-10-22T12:45:19.626Z,59.62
2022-10-22T12:47:49.374Z,57.76
2022-10-22T12:50:20.130Z,56.37
2022-10-22T12:52:48.422Z,55.74
2022-10-22T12:55:17.775Z,55.18
2022-10-22T12:57:48.310Z,53.79
2022-10-22T13:00:26.125Z,53.17
2022-10-22T13:02:58.453Z,52.60
2022-10-22T13:05:28.420Z,52.06
2022-10-22T13:08:04.780Z,53.02
2022-10-22T13:10:35.038Z,52.46
2022-10-22T13:13:06.705Z,50.98
2022-10-22T13:15:38.495Z,52.00
2022-10-22T13:18:17.000Z,52.34
2022-10-22T13:20:53.376Z,51.69
2022-10-22T13:23:23.878Z,51.29
2022-10-22T13:26:00.125Z,51.47
2022-10-22T13:28:29.531Z,50.94
2022-10-22T13:30:59.626Z,50.82
2022-10-22T13:33:34.618Z,51.31
2022-10-22T13:38:30.888Z,50.84
2022-10-22T13:40:59.260Z,51.01
2022-10-22T13:43:27.317Z,50.87
2022-10-22T13:45:58.419Z,51.53
2022-10-22T13:48:29.993Z,51.78
2022-10-22T13:50:57.766Z,53.19
2022-10-22T13:53:27.710Z,54.44
2022-10-22T13:55:55.548Z,54.56
2022-10-22T13:58:25.284Z,55.28
2022-10-22T14:00:55.722Z,55.42
2022-10-22T14:03:27.521Z,56.08
2022-10-22T14:05:57.087Z,56.41
2022-10-22T14:08:26.425Z,56.34
2022-10-22T14:10:54.445Z,56.94
2022-10-22T14:13:22.653Z,56.89
2022-10-22T14:15:52.500Z,56.61
2022-10-22T14:18:25.526Z,57.35
2022-10-22T14:20:55.069Z,57.20
2022-10-22T14:23:26.531Z,58.02
2022-10-22T14:25:54.530Z,58.76
2022-10-22T14:28:22.342Z,57.84
2022-10-22T14:30:50.932Z,58.07
2022-10-22T14:33:28.763Z,58.48
2022-10-22T14:35:59.836Z,58.53
2022-10-22T14:38:29.228Z,59.81
2022-10-22T14:40:58.066Z,60.78
2022-10-22T14:43:28.719Z,60.72
2022-10-22T14:45:56.855Z,61.23
2022-10-22T14:48:24.761Z,62.13
2022-10-22T14:50:52.679Z,62.32
2022-10-22T14:53:20.576Z,63.35
2022-10-22T14:55:51.490Z,63.54
2022-10-22T14:58:19.051Z,64.06
2022-10-22T15:00:46.812Z,64.99
2022-10-22T15:03:14.677Z,65.81
2022-10-22T15:05:44.323Z,65.39
2022-10-22T15:08:13.373Z,66.00
2022-10-22T15:10:41.481Z,65.71
2022-10-22T15:13:10.626Z,66.50
2022-10-22T15:15:40.965Z,66.07
2022-10-22T15:18:08.943Z,66.43
2022-10-22T15:20:36.668Z,66.10
2022-10-22T15:23:04.588Z,66.50
2022-10-22T15:25:32.341Z,66.88
2022-10-22T15:28:02.014Z,66.81
2022-10-22T15:30:33.858Z,66.95
2022-10-22T15:33:02.811Z,66.86
2022-10-22T15:35:30.575Z,66.98
2022-10-22T15:37:58.313Z,67.29
2022-10-22T15:40:26.052Z,67.57
2022-10-22T15:42:53.821Z,67.56
2022-10-22T15:45:22.633Z,67.00
2022-10-22T15:47:51.693Z,67.32
2022-10-22T15:50:19.444Z,67.71
2022-10-22T15:52:47.179Z,67.45
2022-10-22T15:55:15.411Z,67.53
2022-10-22T15:57:43.399Z,67.90
2022-10-22T16:00:12.748Z,67.74
2022-10-22T16:02:40.541Z,68.24
2022-10-22T16:05:10.877Z,68.23
2022-10-22T16:07:38.991Z,68.85
2022-10-22T16:10:08.052Z,69.39
2022-10-22T16:12:36.726Z,69.04
2022-10-22T16:15:04.998Z,70.06
2022-10-22T16:17:32.718Z,70.49
2022-10-22T16:20:00.537Z,71.13
2022-10-22T16:22:29.682Z,71.56
2022-10-22T16:24:57.422Z,71.68
2022-10-22T16:27:25.160Z,72.89
2022-10-22T16:29:52.982Z,73.28
2022-10-22T16:32:20.749Z,73.72
2022-10-22T16:34:48.462Z,73.85
2022-10-22T16:37:16.213Z,74.57
2022-10-22T16:39:45.265Z,75.94
2022-10-22T16:42:13.007Z,76.52
2022-10-22T16:44:40.708Z,77.71
2022-10-22T16:47:08.501Z,77.32
2022-10-22T16:49:36.180Z,77.74
2022-10-22T16:52:04.040Z,77.57
2022-10-22T16:54:31.901Z,78.04
2022-10-22T16:57:01.026Z,78.35
2022-10-22T16:59:28.809Z,79.45
2022-10-22T17:01:57.396Z,79.94
2022-10-22T17:04:25.153Z,80.29
2022-10-22T17:06:52.869Z,80.32
2022-10-22T17:09:20.804Z,80.68
2022-10-22T17:11:48.658Z,80.88
2022-10-22T17:14:17.777Z,80.80
2022-10-22T17:16:48.801Z,80.69
2022-10-22T17:19:16.654Z,81.15
2022-10-22T17:21:44.457Z,81.90
2022-10-22T17:24:12.201Z,81.13
2022-10-22T17:26:39.942Z,81.75
2022-10-22T17:29:07.926Z,81.50
2022-10-22T17:31:37.969Z,81.49
2022-10-22T17:34:06.995Z,81.50
2022-10-22T17:36:36.165Z,80.77
2022-10-22T17:39:06.852Z,80.77
2022-10-22T17:41:36.758Z,81.04
2022-10-22T17:44:06.951Z,81.60
2022-10-22T17:46:34.701Z,81.09
2022-10-22T17:49:07.509Z,81.64
2022-10-22T17:51:35.410Z,82.20
2022-10-22T17:54:05.969Z,82.24
2022-10-22T17:56:37.012Z,82.13
2022-10-22T17:59:04.773Z,82.92
2022-10-22T18:01:35.644Z,83.06
2022-10-22T18:04:06.531Z,83.02
2022-10-22T18:06:35.580Z,83.05
2022-10-22T18:09:05.733Z,83.21
2022-10-22T18:11:36.386Z,82.72
2022-10-22T18:14:04.985Z,82.87
2022-10-22T18:16:32.815Z,82.28
2022-10-22T18:19:01.152Z,82.44
2022-10-22T18:21:32.777Z,82.43
2022-10-22T18:24:00.555Z,82.15
2022-10-22T18:26:28.506Z,81.75
2022-10-22T18:28:56.302Z,81.92
2022-10-22T18:31:26.012Z,81.15
2022-10-22T18:36:28.076Z,81.45
2022-10-22T18:38:59.127Z,81.77
2022-10-22T18:41:27.255Z,81.70
2022-10-22T18:43:57.128Z,81.35
2022-10-22T18:46:25.203Z,81.66
2022-10-22T18:48:53.925Z,81.15
2022-10-22T18:51:22.054Z,80.66
2022-10-22T18:54:04.555Z,81.30
2022-10-22T18:56:41.493Z,81.70
2022-10-22T18:59:16.106Z,81.56
2022-10-22T19:01:43.898Z,82.26
2022-10-22T19:04:12.714Z,82.66
2022-10-22T19:06:45.065Z,83.31
2022-10-22T19:09:13.700Z,83.30
2022-10-22T20:57:07.037Z,90.22
2022-10-22T20:59:35.298Z,90.15
2022-10-22T21:02:04.882Z,90.46
2022-10-22T21:04:32.637Z,90.53
2022-10-22T21:07:00.393Z,90.17
2022-10-22T21:09:28.181Z,90.17
2022-10-22T21:11:56.906Z,89.72
2022-10-22T21:14:26.069Z,89.30
2022-10-22T21:16:53.779Z,89.07
2022-10-22T21:19:22.482Z,88.65
2022-10-22T21:21:50.444Z,89.02
2022-10-22T21:24:18.376Z,88.79
2022-10-22T21:26:46.150Z,88.40
2022-10-22T21:29:14.404Z,88.07
2022-10-22T21:31:43.470Z,87.54
2022-10-22T21:34:12.942Z,87.36
2022-10-22T21:36:40.771Z,87.36
2022-10-22T21:39:08.555Z,87.49
2022-10-22T21:41:37.746Z,87.68
2022-10-22T21:44:05.930Z,87.99
2022-10-22T21:46:33.693Z,87.66
2022-10-22T21:49:04.487Z,87.71
2022-10-22T21:51:35.074Z,87.41
2022-10-22T21:54:02.845Z,87.31
2022-10-22T21:56:33.120Z,86.77
2022-10-22T21:59:00.933Z,86.54
2022-10-22T22:01:29.267Z,86.26
2022-10-22T22:03:57.117Z,86.46
2022-10-22T22:06:30.690Z,86.74
2022-10-22T22:09:00.793Z,87.12
2022-10-22T22:11:29.690Z,87.17
2022-10-22T22:13:58.696Z,88.17
2022-10-22T22:16:29.249Z,89.21
2022-10-22T22:18:57.957Z,90.04
2022-10-22T22:21:28.027Z,90.24
2022-10-22T22:23:55.811Z,90.91
2022-10-22T22:26:28.709Z,91.03
2022-10-22T22:28:58.243Z,90.88
2022-10-22T22:31:28.529Z,90.61
2022-10-22T22:33:59.986Z,90.33
2022-10-22T22:36:29.251Z,90.02
2022-10-22T22:38:57.658Z,90.15
2022-10-22T22:41:25.544Z,90.16
2022-10-22T22:43:53.304Z,90.43
2022-10-22T22:46:21.008Z,90.73
2022-10-22T22:48:49.020Z,90.93
2022-10-22T22:51:17.309Z,91.39
2022-10-22T22:53:46.657Z,91.03
2022-10-22T22:56:16.856Z,90.85
2022-10-22T22:58:44.630Z,90.99
2022-10-22T23:01:15.674Z,91.32
2022-10-22T23:03:43.981Z,91.25
2022-10-22T23:06:12.549Z,91.59
2022-10-22T23:08:40.654Z,91.74
2022-10-22T23:11:11.893Z,92.38
2022-10-22T23:13:40.748Z,92.70
2022-10-22T23:16:09.811Z,92.64
2022-10-22T23:18:37.538Z,92.55
2022-10-22T23:21:06.605Z,92.18
2022-10-22T23:23:34.572Z,91.98
2022-10-22T23:26:02.578Z,91.49
2022-10-22T23:28:31.632Z,91.15
2022-10-22T23:30:59.394Z,91.28
2022-10-22T23:33:27.666Z,91.15
2022-10-22T23:35:55.525Z,91.18
2022-10-22T23:38:23.414Z,90.78
2022-10-22T23:40:56.517Z,90.28
2022-10-22T23:43:24.330Z,89.92
2022-10-22T23:45:53.869Z,89.84
2022-10-22T23:48:22.006Z,89.95
2022-10-22T23:50:50.116Z,90.40
2022-10-22T23:53:18.078Z,90.66
2022-10-22T23:55:45.945Z,90.55
2022-10-22T23:58:13.791Z,90.77
